sensor_id;sensor_type;location;lat;lon;timestamp;temperature;humidity
2783;DHT22;1399;47.072;15.452;2024-03-22T00:01:13;15.20;50.80
2783;DHT22;1399;47.072;15.452;2024-03-22T00:03:38;15.20;50.90
2783;DHT22;1399;47.072;15.452;2024-03-22T00:06:04;15.10;50.80
2783;DHT22;1399;47.072;15.452;2024-03-22T00:08:30;15.10;50.80
2783;DHT22;1399;47.072;15.452;2024-03-22T00:10:56;15.20;50.90
2783;DHT22;1399;47.072;15.452;2024-03-22T00:13:22;15.20;51.00
2783;DHT22;1399;47.072;15.452;2024-03-22T00:15:48;15.20;51.00
2783;DHT22;1399;47.072;15.452;2024-03-22T00:18:13;15.20;51.00
2783;DHT22;1399;47.072;15.452;2024-03-22T00:20:39;15.10;50.90
2783;DHT22;1399;47.072;15.452;2024-03-22T00:23:05;15.10;51.00
2783;DHT22;1399;47.072;15.452;2024-03-22T00:25:31;15.10;51.00
2783;DHT22;1399;47.072;15.452;2024-03-22T00:27:57;15.10;51.00
2783;DHT22;1399;47.072;15.452;2024-03-22T00:30:23;15.10;51.10
2783;DHT22;1399;47.072;15.452;2024-03-22T00:32:49;15.10;51.10
2783;DHT22;1399;47.072;15.452;2024-03-22T00:35:14;15.10;51.20
2783;DHT22;1399;47.072;15.452;2024-03-22T00:37:40;15.10;51.20
2783;DHT22;1399;47.072;15.452;2024-03-22T00:40:06;15.00;51.20
2783;DHT22;1399;47.072;15.452;2024-03-22T00:42:32;15.00;51.20
2783;DHT22;1399;47.072;15.452;2024-03-22T00:44:58;15.00;51.20
2783;DHT22;1399;47.072;15.452;2024-03-22T00:47:24;15.00;51.20
2783;DHT22;1399;47.072;15.452;2024-03-22T00:49:50;15.00;51.30
2783;DHT22;1399;47.072;15.452;2024-03-22T00:52:16;15.00;51.30
2783;DHT22;1399;47.072;15.452;2024-03-22T00:54:42;15.00;51.30
2783;DHT22;1399;47.072;15.452;2024-03-22T00:57:09;15.00;51.30
2783;DHT22;1399;47.072;15.452;2024-03-22T00:59:35;15.00;51.30
2783;DHT22;1399;47.072;15.452;2024-03-22T01:02:00;15.00;52.00
2783;DHT22;1399;47.072;15.452;2024-03-22T01:04:26;15.00;51.40
2783;DHT22;1399;47.072;15.452;2024-03-22T01:06:52;15.00;51.40
2783;DHT22;1399;47.072;15.452;2024-03-22T01:09:18;15.00;51.50
2783;DHT22;1399;47.072;15.452;2024-03-22T01:11:45;15.00;51.60
2783;DHT22;1399;47.072;15.452;2024-03-22T01:14:10;15.00;51.60
2783;DHT22;1399;47.072;15.452;2024-03-22T01:16:36;15.00;51.60
2783;DHT22;1399;47.072;15.452;2024-03-22T01:19:02;15.00;51.70
2783;DHT22;1399;47.072;15.452;2024-03-22T01:21:28;14.90;51.60
2783;DHT22;1399;47.072;15.452;2024-03-22T01:23:53;15.00;51.70
2783;DHT22;1399;47.072;15.452;2024-03-22T01:26:19;14.90;51.60
2783;DHT22;1399;47.072;15.452;2024-03-22T01:28:46;14.90;51.60
2783;DHT22;1399;47.072;15.452;2024-03-22T01:31:13;14.90;51.70
2783;DHT22;1399;47.072;15.452;2024-03-22T01:33:38;14.90;51.70
2783;DHT22;1399;47.072;15.452;2024-03-22T01:36:04;14.90;52.30
2783;DHT22;1399;47.072;15.452;2024-03-22T01:38:31;14.90;51.80
2783;DHT22;1399;47.072;15.452;2024-03-22T01:40:57;14.90;51.80
2783;DHT22;1399;47.072;15.452;2024-03-22T01:43:23;14.90;51.90
2783;DHT22;1399;47.072;15.452;2024-03-22T01:45:48;14.90;51.80
2783;DHT22;1399;47.072;15.452;2024-03-22T01:48:15;14.90;51.80
2783;DHT22;1399;47.072;15.452;2024-03-22T01:50:41;14.90;51.80
2783;DHT22;1399;47.072;15.452;2024-03-22T01:53:08;14.90;51.80
2783;DHT22;1399;47.072;15.452;2024-03-22T01:55:34;14.90;51.80
2783;DHT22;1399;47.072;15.452;2024-03-22T01:58:00;14.90;51.80
2783;DHT22;1399;47.072;15.452;2024-03-22T02:00:26;14.90;51.80
2783;DHT22;1399;47.072;15.452;2024-03-22T02:02:51;14.90;51.80
2783;DHT22;1399;47.072;15.452;2024-03-22T02:05:18;14.90;51.70
2783;DHT22;1399;47.072;15.452;2024-03-22T02:07:47;14.90;51.50
2783;DHT22;1399;47.072;15.452;2024-03-22T02:10:14;14.90;51.30
2783;DHT22;1399;47.072;15.452;2024-03-22T02:12:40;14.90;51.10
2783;DHT22;1399;47.072;15.452;2024-03-22T02:15:07;14.90;50.80
2783;DHT22;1399;47.072;15.452;2024-03-22T02:17:34;14.90;50.60
2783;DHT22;1399;47.072;15.452;2024-03-22T02:20:01;14.90;50.50
2783;DHT22;1399;47.072;15.452;2024-03-22T02:22:27;14.90;50.40
2783;DHT22;1399;47.072;15.452;2024-03-22T02:24:53;14.90;50.10
2783;DHT22;1399;47.072;15.452;2024-03-22T02:27:19;14.90;49.90
2783;DHT22;1399;47.072;15.452;2024-03-22T02:29:45;14.90;49.70
2783;DHT22;1399;47.072;15.452;2024-03-22T02:32:11;14.90;49.60
2783;DHT22;1399;47.072;15.452;2024-03-22T02:34:36;14.90;49.50
2783;DHT22;1399;47.072;15.452;2024-03-22T02:37:02;14.90;49.20
2783;DHT22;1399;47.072;15.452;2024-03-22T02:39:28;15.00;49.00
2783;DHT22;1399;47.072;15.452;2024-03-22T02:41:55;14.90;48.70
2783;DHT22;1399;47.072;15.452;2024-03-22T02:44:21;15.00;48.60
2783;DHT22;1399;47.072;15.452;2024-03-22T02:46:46;15.00;48.30
2783;DHT22;1399;47.072;15.452;2024-03-22T02:49:12;15.00;47.90
2783;DHT22;1399;47.072;15.452;2024-03-22T02:51:38;15.00;47.80
2783;DHT22;1399;47.072;15.452;2024-03-22T02:54:05;15.00;47.80
2783;DHT22;1399;47.072;15.452;2024-03-22T02:56:31;15.00;47.60
2783;DHT22;1399;47.072;15.452;2024-03-22T02:58:56;15.00;47.40
2783;DHT22;1399;47.072;15.452;2024-03-22T03:01:22;15.00;47.20
2783;DHT22;1399;47.072;15.452;2024-03-22T03:03:48;15.00;46.90
2783;DHT22;1399;47.072;15.452;2024-03-22T03:06:14;15.00;46.70
2783;DHT22;1399;47.072;15.452;2024-03-22T03:08:40;15.00;46.40
2783;DHT22;1399;47.072;15.452;2024-03-22T03:11:06;15.00;46.20
2783;DHT22;1399;47.072;15.452;2024-03-22T03:13:32;15.00;46.10
2783;DHT22;1399;47.072;15.452;2024-03-22T03:15:58;15.00;45.90
2783;DHT22;1399;47.072;15.452;2024-03-22T03:18:23;15.00;45.70
2783;DHT22;1399;47.072;15.452;2024-03-22T03:20:49;15.00;45.50
2783;DHT22;1399;47.072;15.452;2024-03-22T03:23:15;15.00;45.40
2783;DHT22;1399;47.072;15.452;2024-03-22T03:25:41;15.00;45.40
2783;DHT22;1399;47.072;15.452;2024-03-22T03:28:07;15.00;45.40
2783;DHT22;1399;47.072;15.452;2024-03-22T03:30:34;15.00;45.20
2783;DHT22;1399;47.072;15.452;2024-03-22T03:33:00;15.00;45.10
2783;DHT22;1399;47.072;15.452;2024-03-22T03:35:26;15.00;44.90
2783;DHT22;1399;47.072;15.452;2024-03-22T03:37:52;15.00;44.80
2783;DHT22;1399;47.072;15.452;2024-03-22T03:40:18;15.00;44.70
2783;DHT22;1399;47.072;15.452;2024-03-22T03:42:44;15.00;44.60
2783;DHT22;1399;47.072;15.452;2024-03-22T03:45:10;15.00;45.30
2783;DHT22;1399;47.072;15.452;2024-03-22T03:47:35;15.00;44.60
2783;DHT22;1399;47.072;15.452;2024-03-22T03:50:01;15.00;44.60
2783;DHT22;1399;47.072;15.452;2024-03-22T03:52:28;15.00;44.40
2783;DHT22;1399;47.072;15.452;2024-03-22T03:54:53;15.00;44.30
2783;DHT22;1399;47.072;15.452;2024-03-22T03:57:19;15.00;44.20
2783;DHT22;1399;47.072;15.452;2024-03-22T03:59:45;15.00;44.10
2783;DHT22;1399;47.072;15.452;2024-03-22T04:02:11;15.00;44.20
2783;DHT22;1399;47.072;15.452;2024-03-22T04:04:36;15.00;44.10
2783;DHT22;1399;47.072;15.452;2024-03-22T04:07:02;15.00;44.10
2783;DHT22;1399;47.072;15.452;2024-03-22T04:09:28;15.00;44.00
2783;DHT22;1399;47.072;15.452;2024-03-22T04:11:54;15.00;44.00
2783;DHT22;1399;47.072;15.452;2024-03-22T04:14:20;15.00;44.00
2783;DHT22;1399;47.072;15.452;2024-03-22T04:16:46;15.00;43.90
2783;DHT22;1399;47.072;15.452;2024-03-22T04:19:12;15.00;43.80
2783;DHT22;1399;47.072;15.452;2024-03-22T04:21:37;15.00;43.80
2783;DHT22;1399;47.072;15.452;2024-03-22T04:24:03;15.00;43.80
2783;DHT22;1399;47.072;15.452;2024-03-22T04:26:29;15.00;43.80
2783;DHT22;1399;47.072;15.452;2024-03-22T04:28:55;15.00;43.70
2783;DHT22;1399;47.072;15.452;2024-03-22T04:31:21;15.00;43.70
2783;DHT22;1399;47.072;15.452;2024-03-22T04:33:47;15.00;43.60
2783;DHT22;1399;47.072;15.452;2024-03-22T04:36:12;15.00;43.60
2783;DHT22;1399;47.072;15.452;2024-03-22T04:38:38;15.00;43.70
2783;DHT22;1399;47.072;15.452;2024-03-22T04:41:04;14.90;43.70
2783;DHT22;1399;47.072;15.452;2024-03-22T04:43:30;15.00;43.70
2783;DHT22;1399;47.072;15.452;2024-03-22T04:45:55;15.00;43.80
2783;DHT22;1399;47.072;15.452;2024-03-22T04:48:22;14.90;43.70
2783;DHT22;1399;47.072;15.452;2024-03-22T04:50:50;14.90;43.80
2783;DHT22;1399;47.072;15.452;2024-03-22T04:53:17;14.90;43.80
2783;DHT22;1399;47.072;15.452;2024-03-22T04:55:44;14.90;43.90
2783;DHT22;1399;47.072;15.452;2024-03-22T04:58:18;14.90;43.90
2783;DHT22;1399;47.072;15.452;2024-03-22T05:00:45;14.90;43.90
2783;DHT22;1399;47.072;15.452;2024-03-22T05:03:12;14.90;43.90
2783;DHT22;1399;47.072;15.452;2024-03-22T05:05:38;14.90;44.10
2783;DHT22;1399;47.072;15.452;2024-03-22T05:08:05;14.90;44.10
2783;DHT22;1399;47.072;15.452;2024-03-22T05:10:31;14.80;44.00
2783;DHT22;1399;47.072;15.452;2024-03-22T05:12:57;14.80;44.10
2783;DHT22;1399;47.072;15.452;2024-03-22T05:15:24;14.80;44.10
2783;DHT22;1399;47.072;15.452;2024-03-22T05:17:53;14.80;44.20
2783;DHT22;1399;47.072;15.452;2024-03-22T05:20:20;14.80;44.20
2783;DHT22;1399;47.072;15.452;2024-03-22T05:22:47;14.80;44.30
2783;DHT22;1399;47.072;15.452;2024-03-22T05:25:13;14.80;44.30
2783;DHT22;1399;47.072;15.452;2024-03-22T05:27:41;14.70;44.30
2783;DHT22;1399;47.072;15.452;2024-03-22T05:30:08;14.80;44.40
2783;DHT22;1399;47.072;15.452;2024-03-22T05:32:35;14.80;44.50
2783;DHT22;1399;47.072;15.452;2024-03-22T05:35:01;14.80;44.50
2783;DHT22;1399;47.072;15.452;2024-03-22T05:37:26;14.70;44.40
2783;DHT22;1399;47.072;15.452;2024-03-22T05:39:52;14.80;44.50
2783;DHT22;1399;47.072;15.452;2024-03-22T05:42:18;14.80;44.50
2783;DHT22;1399;47.072;15.452;2024-03-22T05:44:44;14.80;44.50
2783;DHT22;1399;47.072;15.452;2024-03-22T05:47:10;14.80;44.50
2783;DHT22;1399;47.072;15.452;2024-03-22T05:49:36;14.80;44.50
2783;DHT22;1399;47.072;15.452;2024-03-22T05:52:02;14.80;44.50
2783;DHT22;1399;47.072;15.452;2024-03-22T05:54:28;14.80;44.50
2783;DHT22;1399;47.072;15.452;2024-03-22T05:56:54;14.80;44.50
2783;DHT22;1399;47.072;15.452;2024-03-22T05:59:20;14.80;44.40
2783;DHT22;1399;47.072;15.452;2024-03-22T06:01:46;14.90;44.50
2783;DHT22;1399;47.072;15.452;2024-03-22T06:04:12;14.90;44.40
2783;DHT22;1399;47.072;15.452;2024-03-22T06:06:37;14.90;44.40
2783;DHT22;1399;47.072;15.452;2024-03-22T06:09:03;14.90;44.50
2783;DHT22;1399;47.072;15.452;2024-03-22T06:11:32;14.90;44.50
2783;DHT22;1399;47.072;15.452;2024-03-22T06:13:58;15.00;44.70
2783;DHT22;1399;47.072;15.452;2024-03-22T06:16:24;15.00;44.70
2783;DHT22;1399;47.072;15.452;2024-03-22T06:18:50;15.00;44.80
2783;DHT22;1399;47.072;15.452;2024-03-22T06:21:15;15.00;44.80
2783;DHT22;1399;47.072;15.452;2024-03-22T06:23:50;15.10;44.80
2783;DHT22;1399;47.072;15.452;2024-03-22T06:26:16;15.20;44.80
2783;DHT22;1399;47.072;15.452;2024-03-22T06:28:43;15.30;44.90
2783;DHT22;1399;47.072;15.452;2024-03-22T06:31:09;15.30;44.80
2783;DHT22;1399;47.072;15.452;2024-03-22T06:33:35;15.40;44.80
2783;DHT22;1399;47.072;15.452;2024-03-22T06:36:01;15.50;44.70
2783;DHT22;1399;47.072;15.452;2024-03-22T06:38:28;15.50;44.60
2783;DHT22;1399;47.072;15.452;2024-03-22T06:40:54;15.60;44.70
2783;DHT22;1399;47.072;15.452;2024-03-22T06:43:20;15.60;44.60
2783;DHT22;1399;47.072;15.452;2024-03-22T06:45:46;15.60;44.50
2783;DHT22;1399;47.072;15.452;2024-03-22T06:48:12;15.60;44.40
2783;DHT22;1399;47.072;15.452;2024-03-22T06:50:37;15.70;44.40
2783;DHT22;1399;47.072;15.452;2024-03-22T06:53:03;15.70;44.30
2783;DHT22;1399;47.072;15.452;2024-03-22T06:55:30;15.70;44.30
2783;DHT22;1399;47.072;15.452;2024-03-22T06:57:55;15.70;44.30
2783;DHT22;1399;47.072;15.452;2024-03-22T07:00:21;15.80;44.20
2783;DHT22;1399;47.072;15.452;2024-03-22T07:02:48;15.80;44.20
2783;DHT22;1399;47.072;15.452;2024-03-22T07:05:15;15.90;44.20
2783;DHT22;1399;47.072;15.452;2024-03-22T07:07:41;15.90;44.10
2783;DHT22;1399;47.072;15.452;2024-03-22T07:10:07;15.90;44.10
2783;DHT22;1399;47.072;15.452;2024-03-22T07:12:32;16.00;44.20
2783;DHT22;1399;47.072;15.452;2024-03-22T07:15:02;16.00;44.10
2783;DHT22;1399;47.072;15.452;2024-03-22T07:17:28;16.00;44.00
2783;DHT22;1399;47.072;15.452;2024-03-22T07:19:54;16.10;44.00
2783;DHT22;1399;47.072;15.452;2024-03-22T07:22:21;16.10;44.00
2783;DHT22;1399;47.072;15.452;2024-03-22T07:24:48;16.10;43.90
2783;DHT22;1399;47.072;15.452;2024-03-22T07:27:14;16.10;43.80
2783;DHT22;1399;47.072;15.452;2024-03-22T07:29:41;16.10;43.80
2783;DHT22;1399;47.072;15.452;2024-03-22T07:32:06;16.20;43.80
2783;DHT22;1399;47.072;15.452;2024-03-22T07:34:32;16.20;43.80
2783;DHT22;1399;47.072;15.452;2024-03-22T07:36:58;16.20;43.80
2783;DHT22;1399;47.072;15.452;2024-03-22T07:39:24;16.20;43.80
2783;DHT22;1399;47.072;15.452;2024-03-22T07:41:50;16.20;43.70
2783;DHT22;1399;47.072;15.452;2024-03-22T07:44:17;16.20;43.60
2783;DHT22;1399;47.072;15.452;2024-03-22T07:46:44;16.30;43.70
2783;DHT22;1399;47.072;15.452;2024-03-22T07:49:11;16.30;43.70
2783;DHT22;1399;47.072;15.452;2024-03-22T07:51:37;16.30;43.60
2783;DHT22;1399;47.072;15.452;2024-03-22T07:54:02;16.30;43.60
2783;DHT22;1399;47.072;15.452;2024-03-22T07:56:28;16.30;43.50
2783;DHT22;1399;47.072;15.452;2024-03-22T07:58:54;16.40;43.50
2783;DHT22;1399;47.072;15.452;2024-03-22T08:01:21;16.40;43.40
2783;DHT22;1399;47.072;15.452;2024-03-22T08:03:47;16.40;43.40
2783;DHT22;1399;47.072;15.452;2024-03-22T08:06:13;16.40;43.20
2783;DHT22;1399;47.072;15.452;2024-03-22T08:08:38;16.40;43.20
2783;DHT22;1399;47.072;15.452;2024-03-22T08:11:05;16.50;43.20
2783;DHT22;1399;47.072;15.452;2024-03-22T08:13:30;16.40;43.00
2783;DHT22;1399;47.072;15.452;2024-03-22T08:15:56;16.50;43.00
2783;DHT22;1399;47.072;15.452;2024-03-22T08:18:22;16.50;43.00
2783;DHT22;1399;47.072;15.452;2024-03-22T08:20:48;16.50;43.00
2783;DHT22;1399;47.072;15.452;2024-03-22T08:23:13;16.60;43.10
2783;DHT22;1399;47.072;15.452;2024-03-22T08:25:39;16.60;43.00
2783;DHT22;1399;47.072;15.452;2024-03-22T08:28:05;16.60;42.90
2783;DHT22;1399;47.072;15.452;2024-03-22T08:30:31;16.60;42.90
2783;DHT22;1399;47.072;15.452;2024-03-22T08:32:57;16.70;43.00
2783;DHT22;1399;47.072;15.452;2024-03-22T08:35:22;16.70;43.00
2783;DHT22;1399;47.072;15.452;2024-03-22T08:37:48;16.70;42.80
2783;DHT22;1399;47.072;15.452;2024-03-22T08:40:14;16.70;42.80
2783;DHT22;1399;47.072;15.452;2024-03-22T08:42:40;16.80;42.90
2783;DHT22;1399;47.072;15.452;2024-03-22T08:45:06;16.80;42.80
2783;DHT22;1399;47.072;15.452;2024-03-22T08:47:32;16.80;42.90
2783;DHT22;1399;47.072;15.452;2024-03-22T08:49:59;16.80;42.80
2783;DHT22;1399;47.072;15.452;2024-03-22T08:52:25;16.80;42.90
2783;DHT22;1399;47.072;15.452;2024-03-22T08:54:52;16.80;42.80
2783;DHT22;1399;47.072;15.452;2024-03-22T08:57:18;16.90;42.90
2783;DHT22;1399;47.072;15.452;2024-03-22T08:59:45;16.80;42.90
2783;DHT22;1399;47.072;15.452;2024-03-22T09:02:11;16.90;43.00
2783;DHT22;1399;47.072;15.452;2024-03-22T09:04:37;16.90;42.80
2783;DHT22;1399;47.072;15.452;2024-03-22T09:07:03;16.90;42.70
2783;DHT22;1399;47.072;15.452;2024-03-22T09:09:29;16.90;42.80
2783;DHT22;1399;47.072;15.452;2024-03-22T09:11:55;17.00;42.90
2783;DHT22;1399;47.072;15.452;2024-03-22T09:14:21;17.00;42.90
2783;DHT22;1399;47.072;15.452;2024-03-22T09:16:47;17.00;43.10
2783;DHT22;1399;47.072;15.452;2024-03-22T09:19:12;17.00;43.40
2783;DHT22;1399;47.072;15.452;2024-03-22T09:21:38;17.00;43.40
2783;DHT22;1399;47.072;15.452;2024-03-22T09:24:04;17.10;43.40
2783;DHT22;1399;47.072;15.452;2024-03-22T09:26:31;17.10;43.30
2783;DHT22;1399;47.072;15.452;2024-03-22T09:28:57;17.20;43.40
2783;DHT22;1399;47.072;15.452;2024-03-22T09:31:22;17.20;43.30
2783;DHT22;1399;47.072;15.452;2024-03-22T09:33:48;17.20;43.50
2783;DHT22;1399;47.072;15.452;2024-03-22T09:36:14;17.20;43.40
2783;DHT22;1399;47.072;15.452;2024-03-22T09:38:40;17.30;43.40
2783;DHT22;1399;47.072;15.452;2024-03-22T09:41:06;17.30;43.20
2783;DHT22;1399;47.072;15.452;2024-03-22T09:43:33;17.40;43.10
2783;DHT22;1399;47.072;15.452;2024-03-22T09:46:01;17.40;42.90
2783;DHT22;1399;47.072;15.452;2024-03-22T09:48:28;17.50;42.80
2783;DHT22;1399;47.072;15.452;2024-03-22T09:50:55;17.50;42.60
2783;DHT22;1399;47.072;15.452;2024-03-22T09:53:21;17.60;42.50
2783;DHT22;1399;47.072;15.452;2024-03-22T09:55:48;17.60;42.40
2783;DHT22;1399;47.072;15.452;2024-03-22T09:58:15;17.60;42.30
2783;DHT22;1399;47.072;15.452;2024-03-22T10:00:45;17.60;42.30
2783;DHT22;1399;47.072;15.452;2024-03-22T10:03:10;17.60;42.30
2783;DHT22;1399;47.072;15.452;2024-03-22T10:05:36;17.60;42.60
2783;DHT22;1399;47.072;15.452;2024-03-22T10:08:03;17.60;42.70
2783;DHT22;1399;47.072;15.452;2024-03-22T10:10:31;17.60;42.80
2783;DHT22;1399;47.072;15.452;2024-03-22T10:12:57;17.60;42.90
2783;DHT22;1399;47.072;15.452;2024-03-22T10:15:24;17.60;43.10
2783;DHT22;1399;47.072;15.452;2024-03-22T10:17:51;17.60;43.10
2783;DHT22;1399;47.072;15.452;2024-03-22T10:20:20;17.60;43.20
2783;DHT22;1399;47.072;15.452;2024-03-22T10:22:55;17.60;43.40
2783;DHT22;1399;47.072;15.452;2024-03-22T10:25:23;17.60;43.70
2783;DHT22;1399;47.072;15.452;2024-03-22T10:27:48;17.70;44.60
2783;DHT22;1399;47.072;15.452;2024-03-22T10:30:16;17.70;44.40
2783;DHT22;1399;47.072;15.452;2024-03-22T10:32:44;17.70;44.90
2783;DHT22;1399;47.072;15.452;2024-03-22T10:35:14;17.70;44.80
2783;DHT22;1399;47.072;15.452;2024-03-22T10:37:41;17.70;44.80
2783;DHT22;1399;47.072;15.452;2024-03-22T10:40:07;17.70;44.90
2783;DHT22;1399;47.072;15.452;2024-03-22T10:42:41;17.70;45.20
2783;DHT22;1399;47.072;15.452;2024-03-22T10:45:08;17.70;45.20
2783;DHT22;1399;47.072;15.452;2024-03-22T10:47:36;17.70;45.40
2783;DHT22;1399;47.072;15.452;2024-03-22T10:50:11;17.70;45.40
2783;DHT22;1399;47.072;15.452;2024-03-22T10:52:58;17.70;45.80
2783;DHT22;1399;47.072;15.452;2024-03-22T10:55:34;17.80;45.90
2783;DHT22;1399;47.072;15.452;2024-03-22T10:58:00;17.80;45.80
2783;DHT22;1399;47.072;15.452;2024-03-22T11:00:31;17.80;45.70
2783;DHT22;1399;47.072;15.452;2024-03-22T11:02:57;17.90;45.70
2783;DHT22;1399;47.072;15.452;2024-03-22T11:05:23;17.90;45.60
2783;DHT22;1399;47.072;15.452;2024-03-22T11:08:01;17.90;45.80
2783;DHT22;1399;47.072;15.452;2024-03-22T11:10:30;18.00;45.80
2783;DHT22;1399;47.072;15.452;2024-03-22T11:13:01;18.00;45.70
2783;DHT22;1399;47.072;15.452;2024-03-22T11:15:31;18.10;45.90
2783;DHT22;1399;47.072;15.452;2024-03-22T11:17:57;18.10;45.90
2783;DHT22;1399;47.072;15.452;2024-03-22T11:20:25;18.10;45.90
2783;DHT22;1399;47.072;15.452;2024-03-22T11:22:54;18.20;46.00
2783;DHT22;1399;47.072;15.452;2024-03-22T11:25:20;18.20;45.90
2783;DHT22;1399;47.072;15.452;2024-03-22T11:27:46;18.30;45.90
2783;DHT22;1399;47.072;15.452;2024-03-22T11:30:12;18.40;45.90
2783;DHT22;1399;47.072;15.452;2024-03-22T11:32:39;18.40;45.90
2783;DHT22;1399;47.072;15.452;2024-03-22T11:35:11;18.40;45.80
2783;DHT22;1399;47.072;15.452;2024-03-22T11:41:06;18.50;45.90
2783;DHT22;1399;47.072;15.452;2024-03-22T11:43:33;18.50;46.00
2783;DHT22;1399;47.072;15.452;2024-03-22T11:45:58;18.50;46.00
2783;DHT22;1399;47.072;15.452;2024-03-22T11:48:26;18.60;46.00
2783;DHT22;1399;47.072;15.452;2024-03-22T11:50:52;18.60;46.10
2783;DHT22;1399;47.072;15.452;2024-03-22T11:53:18;18.60;46.10
2783;DHT22;1399;47.072;15.452;2024-03-22T11:55:44;18.60;46.00
2783;DHT22;1399;47.072;15.452;2024-03-22T11:58:10;18.70;46.10
2783;DHT22;1399;47.072;15.452;2024-03-22T12:00:36;18.70;46.10
2783;DHT22;1399;47.072;15.452;2024-03-22T12:03:05;18.70;46.00
2783;DHT22;1399;47.072;15.452;2024-03-22T12:05:32;18.70;45.80
2783;DHT22;1399;47.072;15.452;2024-03-22T12:07:58;18.80;45.60
2783;DHT22;1399;47.072;15.452;2024-03-22T12:10:23;18.80;45.60
2783;DHT22;1399;47.072;15.452;2024-03-22T12:12:49;18.80;45.60
2783;DHT22;1399;47.072;15.452;2024-03-22T12:15:15;18.80;45.90
2783;DHT22;1399;47.072;15.452;2024-03-22T12:17:41;18.80;46.00
2783;DHT22;1399;47.072;15.452;2024-03-22T12:20:09;18.90;46.70
2783;DHT22;1399;47.072;15.452;2024-03-22T12:22:35;18.90;46.40
2783;DHT22;1399;47.072;15.452;2024-03-22T12:25:01;18.90;46.50
2783;DHT22;1399;47.072;15.452;2024-03-22T12:27:27;18.90;46.60
2783;DHT22;1399;47.072;15.452;2024-03-22T12:29:53;18.90;46.60
2783;DHT22;1399;47.072;15.452;2024-03-22T12:32:19;18.90;46.80
2783;DHT22;1399;47.072;15.452;2024-03-22T12:34:45;19.00;47.00
2783;DHT22;1399;47.072;15.452;2024-03-22T12:37:10;19.00;46.90
2783;DHT22;1399;47.072;15.452;2024-03-22T12:39:36;19.00;47.10
2783;DHT22;1399;47.072;15.452;2024-03-22T12:42:02;19.00;47.20
2783;DHT22;1399;47.072;15.452;2024-03-22T12:44:28;19.00;47.40
2783;DHT22;1399;47.072;15.452;2024-03-22T12:46:54;19.00;47.20
2783;DHT22;1399;47.072;15.452;2024-03-22T12:49:21;19.10;47.30
2783;DHT22;1399;47.072;15.452;2024-03-22T12:51:47;19.10;47.20
2783;DHT22;1399;47.072;15.452;2024-03-22T12:54:13;19.10;47.30
2783;DHT22;1399;47.072;15.452;2024-03-22T12:56:40;19.20;47.20
2783;DHT22;1399;47.072;15.452;2024-03-22T12:59:06;19.10;46.90
2783;DHT22;1399;47.072;15.452;2024-03-22T13:01:33;19.10;46.40
2783;DHT22;1399;47.072;15.452;2024-03-22T13:03:59;19.10;46.10
2783;DHT22;1399;47.072;15.452;2024-03-22T13:06:25;19.10;45.70
2783;DHT22;1399;47.072;15.452;2024-03-22T13:08:51;19.10;45.50
2783;DHT22;1399;47.072;15.452;2024-03-22T13:11:17;19.10;45.30
2783;DHT22;1399;47.072;15.452;2024-03-22T13:13:43;19.10;45.20
2783;DHT22;1399;47.072;15.452;2024-03-22T13:16:09;19.10;45.30
2783;DHT22;1399;47.072;15.452;2024-03-22T13:18:37;19.10;45.80
2783;DHT22;1399;47.072;15.452;2024-03-22T13:21:03;19.10;46.40
2783;DHT22;1399;47.072;15.452;2024-03-22T13:23:30;19.10;46.10
2783;DHT22;1399;47.072;15.452;2024-03-22T13:25:56;19.10;46.80
2783;DHT22;1399;47.072;15.452;2024-03-22T13:28:24;19.00;46.60
2783;DHT22;1399;47.072;15.452;2024-03-22T13:31:00;19.00;46.60
2783;DHT22;1399;47.072;15.452;2024-03-22T13:33:26;19.00;46.90
2783;DHT22;1399;47.072;15.452;2024-03-22T13:35:51;19.00;47.00
2783;DHT22;1399;47.072;15.452;2024-03-22T13:38:17;19.00;46.90
2783;DHT22;1399;47.072;15.452;2024-03-22T13:40:43;18.90;46.90
2783;DHT22;1399;47.072;15.452;2024-03-22T13:43:10;18.90;47.40
2783;DHT22;1399;47.072;15.452;2024-03-22T13:45:41;18.90;47.30
2783;DHT22;1399;47.072;15.452;2024-03-22T13:48:10;18.90;47.90
2783;DHT22;1399;47.072;15.452;2024-03-22T13:50:37;18.80;48.20
2783;DHT22;1399;47.072;15.452;2024-03-22T13:53:03;18.80;48.00
2783;DHT22;1399;47.072;15.452;2024-03-22T13:55:29;18.80;48.70
2783;DHT22;1399;47.072;15.452;2024-03-22T13:57:54;18.80;48.40
2783;DHT22;1399;47.072;15.452;2024-03-22T14:00:20;18.80;48.40
2783;DHT22;1399;47.072;15.452;2024-03-22T14:02:46;18.80;48.60
2783;DHT22;1399;47.072;15.452;2024-03-22T14:05:17;18.80;48.70
2783;DHT22;1399;47.072;15.452;2024-03-22T14:07:43;18.80;49.20
2783;DHT22;1399;47.072;15.452;2024-03-22T14:10:09;18.80;49.40
2783;DHT22;1399;47.072;15.452;2024-03-22T14:12:35;18.80;49.40
2783;DHT22;1399;47.072;15.452;2024-03-22T14:15:01;18.80;49.50
2783;DHT22;1399;47.072;15.452;2024-03-22T14:17:27;18.80;49.40
2783;DHT22;1399;47.072;15.452;2024-03-22T14:19:52;18.80;49.30
2783;DHT22;1399;47.072;15.452;2024-03-22T14:22:19;18.80;49.30
2783;DHT22;1399;47.072;15.452;2024-03-22T14:24:45;18.80;49.30
2783;DHT22;1399;47.072;15.452;2024-03-22T14:27:10;18.80;49.40
2783;DHT22;1399;47.072;15.452;2024-03-22T14:29:36;18.80;49.30
2783;DHT22;1399;47.072;15.452;2024-03-22T14:32:02;18.80;49.20
2783;DHT22;1399;47.072;15.452;2024-03-22T14:34:28;18.80;49.20
2783;DHT22;1399;47.072;15.452;2024-03-22T14:36:53;18.90;49.50
2783;DHT22;1399;47.072;15.452;2024-03-22T14:39:19;18.80;49.40
2783;DHT22;1399;47.072;15.452;2024-03-22T14:41:45;18.90;49.80
2783;DHT22;1399;47.072;15.452;2024-03-22T14:44:11;18.90;50.10
2783;DHT22;1399;47.072;15.452;2024-03-22T14:46:36;18.90;50.00
2783;DHT22;1399;47.072;15.452;2024-03-22T14:49:02;18.80;49.90
2783;DHT22;1399;47.072;15.452;2024-03-22T14:51:28;18.80;50.20
2783;DHT22;1399;47.072;15.452;2024-03-22T14:53:54;18.90;50.30
2783;DHT22;1399;47.072;15.452;2024-03-22T14:56:20;18.80;50.60
2783;DHT22;1399;47.072;15.452;2024-03-22T14:58:46;18.80;50.60
2783;DHT22;1399;47.072;15.452;2024-03-22T15:01:12;18.80;50.90
2783;DHT22;1399;47.072;15.452;2024-03-22T15:03:38;18.80;51.00
2783;DHT22;1399;47.072;15.452;2024-03-22T15:06:04;18.80;50.60
2783;DHT22;1399;47.072;15.452;2024-03-22T15:08:30;18.80;50.20
2783;DHT22;1399;47.072;15.452;2024-03-22T15:10:55;18.80;50.10
2783;DHT22;1399;47.072;15.452;2024-03-22T15:13:22;18.90;50.40
2783;DHT22;1399;47.072;15.452;2024-03-22T15:15:57;18.80;50.30
2783;DHT22;1399;47.072;15.452;2024-03-22T15:18:23;18.80;50.50
2783;DHT22;1399;47.072;15.452;2024-03-22T15:20:50;18.80;50.50
2783;DHT22;1399;47.072;15.452;2024-03-22T15:23:17;18.80;50.60
2783;DHT22;1399;47.072;15.452;2024-03-22T15:25:44;18.80;50.50
2783;DHT22;1399;47.072;15.452;2024-03-22T15:28:10;18.80;50.70
2783;DHT22;1399;47.072;15.452;2024-03-22T15:30:37;18.70;50.80
2783;DHT22;1399;47.072;15.452;2024-03-22T15:33:04;18.70;51.00
2783;DHT22;1399;47.072;15.452;2024-03-22T15:35:30;18.70;50.90
2783;DHT22;1399;47.072;15.452;2024-03-22T15:37:57;18.70;50.90
2783;DHT22;1399;47.072;15.452;2024-03-22T15:40:22;18.70;51.20
2783;DHT22;1399;47.072;15.452;2024-03-22T15:42:49;18.60;51.20